sensor_id;sensor_type;location;lat;lon;timestamp;temperature;humidity
13049;DHT22;6591;51.446;5.404;2024-03-23T00:54:43;9.00;99.90
13049;DHT22;6591;51.446;5.404;2024-03-23T00:57:09;9.00;99.90
13049;DHT22;6591;51.446;5.404;2024-03-23T00:59:35;9.00;99.90
13049;DHT22;6591;51.446;5.404;2024-03-23T01:02:01;9.00;99.90
13049;DHT22;6591;51.446;5.404;2024-03-23T01:04:27;8.90;99.90
13049;DHT22;6591;51.446;5.404;2024-03-23T01:06:53;8.90;99.90
13049;DHT22;6591;51.446;5.404;2024-03-23T01:09:19;8.90;99.90
13049;DHT22;6591;51.446;5.404;2024-03-23T01:11:45;8.80;99.90
13049;DHT22;6591;51.446;5.404;2024-03-23T01:14:11;8.80;99.90
13049;DHT22;6591;51.446;5.404;2024-03-23T01:16:37;8.80;99.90
13049;DHT22;6591;51.446;5.404;2024-03-23T01:19:03;10.50;99.90
13049;DHT22;6591;51.446;5.404;2024-03-23T01:21:29;9.80;99.90
13049;DHT22;6591;51.446;5.404;2024-03-23T01:23:55;8.80;99.90
13049;DHT22;6591;51.446;5.404;2024-03-23T01:26:21;8.80;99.90
13049;DHT22;6591;51.446;5.404;2024-03-23T01:28:47;8.80;99.90
13049;DHT22;6591;51.446;5.404;2024-03-23T01:31:14;8.80;99.90
13049;DHT22;6591;51.446;5.404;2024-03-23T01:33:41;9.30;99.90
13049;DHT22;6591;51.446;5.404;2024-03-23T01:36:07;8.80;99.90
13049;DHT22;6591;51.446;5.404;2024-03-23T01:38:34;8.80;99.90
13049;DHT22;6591;51.446;5.404;2024-03-23T01:41:00;8.70;99.90
13049;DHT22;6591;51.446;5.404;2024-03-23T01:43:26;8.40;99.90
13049;DHT22;6591;51.446;5.404;2024-03-23T01:45:52;8.70;99.90
13049;DHT22;6591;51.446;5.404;2024-03-23T01:48:20;8.70;99.90
13049;DHT22;6591;51.446;5.404;2024-03-23T01:50:49;8.70;99.90
13049;DHT22;6591;51.446;5.404;2024-03-23T01:53:15;9.20;99.90
13049;DHT22;6591;51.446;5.404;2024-03-23T01:55:47;8.70;99.90
13049;DHT22;6591;51.446;5.404;2024-03-23T01:58:14;8.70;99.90
13049;DHT22;6591;51.446;5.404;2024-03-23T02:00:40;8.70;99.90
13049;DHT22;6591;51.446;5.404;2024-03-23T02:03:25;8.60;99.90
13049;DHT22;6591;51.446;5.404;2024-03-23T02:05:56;8.70;99.90
13049;DHT22;6591;51.446;5.404;2024-03-23T02:08:44;8.80;99.90
13049;DHT22;6591;51.446;5.404;2024-03-23T02:11:11;10.30;99.90
13049;DHT22;6591;51.446;5.404;2024-03-23T02:13:37;7.80;99.90
13049;DHT22;6591;51.446;5.404;2024-03-23T02:16:05;10.10;99.90
13049;DHT22;6591;51.446;5.404;2024-03-23T02:18:32;8.70;99.90
13049;DHT22;6591;51.446;5.404;2024-03-23T02:20:58;11.00;99.90
13049;DHT22;6591;51.446;5.404;2024-03-23T02:23:25;8.60;99.90
13049;DHT22;6591;51.446;5.404;2024-03-23T02:25:52;8.60;99.90
13049;DHT22;6591;51.446;5.404;2024-03-23T02:28:22;10.70;99.90
13049;DHT22;6591;51.446;5.404;2024-03-23T02:30:49;8.60;99.90
13049;DHT22;6591;51.446;5.404;2024-03-23T02:33:16;8.50;99.90
13049;DHT22;6591;51.446;5.404;2024-03-23T02:35:43;8.50;99.90
13049;DHT22;6591;51.446;5.404;2024-03-23T02:38:11;8.40;99.90
13049;DHT22;6591;51.446;5.404;2024-03-23T02:40:37;10.80;99.90
13049;DHT22;6591;51.446;5.404;2024-03-23T02:43:03;8.40;99.90
13049;DHT22;6591;51.446;5.404;2024-03-23T02:45:30;8.40;99.90
13049;DHT22;6591;51.446;5.404;2024-03-23T02:47:57;8.40;99.90
13049;DHT22;6591;51.446;5.404;2024-03-23T02:50:23;6.80;99.90
13049;DHT22;6591;51.446;5.404;2024-03-23T02:52:49;8.30;99.90
13049;DHT22;6591;51.446;5.404;2024-03-23T02:55:15;11.30;99.90
13049;DHT22;6591;51.446;5.404;2024-03-23T02:57:42;8.30;99.90
13049;DHT22;6591;51.446;5.404;2024-03-23T03:00:08;8.20;99.90
13049;DHT22;6591;51.446;5.404;2024-03-23T03:02:37;8.20;99.90
13049;DHT22;6591;51.446;5.404;2024-03-23T03:05:04;8.20;99.90
13049;DHT22;6591;51.446;5.404;2024-03-23T03:07:32;8.20;99.90
13049;DHT22;6591;51.446;5.404;2024-03-23T03:09:58;9.00;99.90
13049;DHT22;6591;51.446;5.404;2024-03-23T03:12:24;10.40;99.90
13049;DHT22;6591;51.446;5.404;2024-03-23T03:14:51;8.10;99.90
13049;DHT22;6591;51.446;5.404;2024-03-23T03:17:17;8.10;99.90
13049;DHT22;6591;51.446;5.404;2024-03-23T03:19:43;8.10;99.90
13049;DHT22;6591;51.446;5.404;2024-03-23T03:22:09;8.10;99.90
13049;DHT22;6591;51.446;5.404;2024-03-23T03:24:35;8.10;99.90
13049;DHT22;6591;51.446;5.404;2024-03-23T03:27:01;9.40;99.90
13049;DHT22;6591;51.446;5.404;2024-03-23T03:29:29;7.90;99.90
13049;DHT22;6591;51.446;5.404;2024-03-23T03:32:02;8.00;99.90
13049;DHT22;6591;51.446;5.404;2024-03-23T03:34:30;7.90;99.90
13049;DHT22;6591;51.446;5.404;2024-03-23T03:36:57;7.90;99.90
13049;DHT22;6591;51.446;5.404;2024-03-23T03:39:24;9.90;99.90
13049;DHT22;6591;51.446;5.404;2024-03-23T03:41:50;7.80;99.90
13049;DHT22;6591;51.446;5.404;2024-03-23T03:44:17;6.40;99.90
13049;DHT22;6591;51.446;5.404;2024-03-23T03:46:43;7.70;99.90
13049;DHT22;6591;51.446;5.404;2024-03-23T03:49:09;7.60;99.90
13049;DHT22;6591;51.446;5.404;2024-03-23T03:51:36;7.60;99.90
13049;DHT22;6591;51.446;5.404;2024-03-23T03:54:02;5.80;99.90
13049;DHT22;6591;51.446;5.404;2024-03-23T03:56:29;7.40;99.90
13049;DHT22;6591;51.446;5.404;2024-03-23T03:58:55;7.40;99.90
13049;DHT22;6591;51.446;5.404;2024-03-23T04:01:21;7.30;99.90
13049;DHT22;6591;51.446;5.404;2024-03-23T04:03:47;7.30;99.90
13049;DHT22;6591;51.446;5.404;2024-03-23T04:06:22;7.20;99.90
13049;DHT22;6591;51.446;5.404;2024-03-23T04:08:49;8.80;99.90
13049;DHT22;6591;51.446;5.404;2024-03-23T04:11:15;8.20;99.90
13049;DHT22;6591;51.446;5.404;2024-03-23T04:13:41;7.00;99.90
13049;DHT22;6591;51.446;5.404;2024-03-23T04:16:08;9.20;99.90
13049;DHT22;6591;51.446;5.404;2024-03-23T04:18:35;9.30;99.90
13049;DHT22;6591;51.446;5.404;2024-03-23T04:21:01;6.80;99.90
13049;DHT22;6591;51.446;5.404;2024-03-23T04:23:28;6.80;99.90
13049;DHT22;6591;51.446;5.404;2024-03-23T04:25:54;6.70;99.90
13049;DHT22;6591;51.446;5.404;2024-03-23T04:28:20;8.90;99.90
13049;DHT22;6591;51.446;5.404;2024-03-23T04:30:48;6.60;99.90
13049;DHT22;6591;51.446;5.404;2024-03-23T04:33:14;6.60;99.90
13049;DHT22;6591;51.446;5.404;2024-03-23T04:35:40;6.50;99.90
13049;DHT22;6591;51.446;5.404;2024-03-23T04:38:12;5.10;99.90
13049;DHT22;6591;51.446;5.404;2024-03-23T04:40:38;6.60;99.90
13049;DHT22;6591;51.446;5.404;2024-03-23T04:43:04;6.40;99.90
13049;DHT22;6591;51.446;5.404;2024-03-23T04:45:32;6.40;99.90
13049;DHT22;6591;51.446;5.404;2024-03-23T04:47:58;6.30;99.90
13049;DHT22;6591;51.446;5.404;2024-03-23T04:50:24;6.30;99.90
13049;DHT22;6591;51.446;5.404;2024-03-23T04:52:50;6.30;99.90
13049;DHT22;6591;51.446;5.404;2024-03-23T04:55:16;6.30;99.90
13049;DHT22;6591;51.446;5.404;2024-03-23T04:57:42;6.20;99.90
13049;DHT22;6591;51.446;5.404;2024-03-23T05:00:10;6.30;99.90
13049;DHT22;6591;51.446;5.404;2024-03-23T05:02:44;6.20;99.90
13049;DHT22;6591;51.446;5.404;2024-03-23T05:05:11;7.40;99.90
13049;DHT22;6591;51.446;5.404;2024-03-23T05:07:38;8.30;99.90
13049;DHT22;6591;51.446;5.404;2024-03-23T05:10:04;6.20;99.90
13049;DHT22;6591;51.446;5.404;2024-03-23T05:12:30;6.20;99.90
13049;DHT22;6591;51.446;5.404;2024-03-23T05:14:57;8.60;99.90
13049;DHT22;6591;51.446;5.404;2024-03-23T05:17:24;8.20;99.90
13049;DHT22;6591;51.446;5.404;2024-03-23T05:19:50;6.10;99.90
13049;DHT22;6591;51.446;5.404;2024-03-23T05:22:16;8.70;99.90
13049;DHT22;6591;51.446;5.404;2024-03-23T05:24:42;7.90;99.90
13049;DHT22;6591;51.446;5.404;2024-03-23T05:27:10;6.10;99.90
13049;DHT22;6591;51.446;5.404;2024-03-23T05:29:36;6.10;99.90
13049;DHT22;6591;51.446;5.404;2024-03-23T05:32:03;8.60;99.90
13049;DHT22;6591;51.446;5.404;2024-03-23T05:34:29;6.10;99.90
13049;DHT22;6591;51.446;5.404;2024-03-23T05:36:55;8.30;99.90
13049;DHT22;6591;51.446;5.404;2024-03-23T05:39:21;6.10;99.90
13049;DHT22;6591;51.446;5.404;2024-03-23T05:41:48;8.50;99.90
13049;DHT22;6591;51.446;5.404;2024-03-23T05:44:14;8.50;99.90
13049;DHT22;6591;51.446;5.404;2024-03-23T05:46:41;6.20;99.90
13049;DHT22;6591;51.446;5.404;2024-03-23T05:49:15;6.10;99.90
13049;DHT22;6591;51.446;5.404;2024-03-23T05:51:43;6.20;99.90
13049;DHT22;6591;51.446;5.404;2024-03-23T05:54:09;6.10;99.90
13049;DHT22;6591;51.446;5.404;2024-03-23T05:56:35;6.20;99.90
13049;DHT22;6591;51.446;5.404;2024-03-23T05:59:01;6.20;99.90
13049;DHT22;6591;51.446;5.404;2024-03-23T06:01:29;6.20;99.90
13049;DHT22;6591;51.446;5.404;2024-03-23T06:03:58;7.30;99.90
13049;DHT22;6591;51.446;5.404;2024-03-23T06:06:24;6.20;99.90
13049;DHT22;6591;51.446;5.404;2024-03-23T06:08:50;6.20;99.90
13049;DHT22;6591;51.446;5.404;2024-03-23T06:11:16;6.20;99.90
13049;DHT22;6591;51.446;5.404;2024-03-23T06:13:42;6.30;99.90
13049;DHT22;6591;51.446;5.404;2024-03-23T06:16:09;6.30;99.90
13049;DHT22;6591;51.446;5.404;2024-03-23T06:18:36;6.30;99.90
13049;DHT22;6591;51.446;5.404;2024-03-23T06:21:02;6.40;99.90
13049;DHT22;6591;51.446;5.404;2024-03-23T06:23:28;6.50;99.90
13049;DHT22;6591;51.446;5.404;2024-03-23T06:25:54;6.60;99.90
13049;DHT22;6591;51.446;5.404;2024-03-23T06:28:20;6.80;99.90
13049;DHT22;6591;51.446;5.404;2024-03-23T06:30:47;7.80;99.90
13049;DHT22;6591;51.446;5.404;2024-03-23T06:33:13;7.10;99.90
13049;DHT22;6591;51.446;5.404;2024-03-23T06:35:40;7.20;99.90
13049;DHT22;6591;51.446;5.404;2024-03-23T06:38:06;7.20;99.90
13049;DHT22;6591;51.446;5.404;2024-03-23T06:40:32;7.30;99.90
13049;DHT22;6591;51.446;5.404;2024-03-23T06:42:58;7.40;99.90
13049;DHT22;6591;51.446;5.404;2024-03-23T06:45:24;9.60;99.90
13049;DHT22;6591;51.446;5.404;2024-03-23T06:47:50;7.50;99.90
13049;DHT22;6591;51.446;5.404;2024-03-23T06:50:17;8.90;99.90
13049;DHT22;6591;51.446;5.404;2024-03-23T06:52:43;7.60;99.90
13049;DHT22;6591;51.446;5.404;2024-03-23T06:55:09;9.00;99.90
13049;DHT22;6591;51.446;5.404;2024-03-23T06:57:35;7.70;99.90
13049;DHT22;6591;51.446;5.404;2024-03-23T07:00:02;9.60;99.90
13049;DHT22;6591;51.446;5.404;2024-03-23T07:02:29;7.80;99.90
13049;DHT22;6591;51.446;5.404;2024-03-23T07:04:55;10.30;99.90
13049;DHT22;6591;51.446;5.404;2024-03-23T07:07:22;7.80;99.90
13049;DHT22;6591;51.446;5.404;2024-03-23T07:09:50;7.90;99.90
13049;DHT22;6591;51.446;5.404;2024-03-23T07:12:18;8.60;99.90
13049;DHT22;6591;51.446;5.404;2024-03-23T07:14:44;8.00;99.90
13049;DHT22;6591;51.446;5.404;2024-03-23T07:17:31;8.10;99.90
13049;DHT22;6591;51.446;5.404;2024-03-23T07:20:19;7.30;99.90
13049;DHT22;6591;51.446;5.404;2024-03-23T07:22:46;8.80;99.90
13049;DHT22;6591;51.446;5.404;2024-03-23T07:25:13;6.60;99.90
13049;DHT22;6591;51.446;5.404;2024-03-23T07:27:39;8.30;99.90
13049;DHT22;6591;51.446;5.404;2024-03-23T07:30:06;8.40;99.90
13049;DHT22;6591;51.446;5.404;2024-03-23T07:32:35;8.30;99.90
13049;DHT22;6591;51.446;5.404;2024-03-23T07:35:02;8.40;99.90
13049;DHT22;6591;51.446;5.404;2024-03-23T07:37:28;8.40;99.90
13049;DHT22;6591;51.446;5.404;2024-03-23T07:39:55;8.40;99.90
13049;DHT22;6591;51.446;5.404;2024-03-23T07:42:21;8.40;99.90
13049;DHT22;6591;51.446;5.404;2024-03-23T07:44:48;10.40;99.90
13049;DHT22;6591;51.446;5.404;2024-03-23T07:47:15;8.60;99.90
13049;DHT22;6591;51.446;5.404;2024-03-23T07:49:44;8.90;99.90
13049;DHT22;6591;51.446;5.404;2024-03-23T07:52:10;9.00;99.90
13049;DHT22;6591;51.446;5.404;2024-03-23T07:54:36;11.30;99.90
13049;DHT22;6591;51.446;5.404;2024-03-23T07:57:02;10.50;99.90
13049;DHT22;6591;51.446;5.404;2024-03-23T07:59:29;9.30;99.90
13049;DHT22;6591;51.446;5.404;2024-03-23T08:01:57;10.90;99.90
13049;DHT22;6591;51.446;5.404;2024-03-23T08:04:23;10.30;99.90
13049;DHT22;6591;51.446;5.404;2024-03-23T08:06:50;10.90;99.90
13049;DHT22;6591;51.446;5.404;2024-03-23T08:09:16;9.60;99.90
13049;DHT22;6591;51.446;5.404;2024-03-23T08:11:43;9.60;99.90
13049;DHT22;6591;51.446;5.404;2024-03-23T08:14:12;10.80;99.90
13049;DHT22;6591;51.446;5.404;2024-03-23T08:16:38;12.50;99.90
13049;DHT22;6591;51.446;5.404;2024-03-23T08:19:04;10.00;99.90
13049;DHT22;6591;51.446;5.404;2024-03-23T08:21:31;12.00;99.90
13049;DHT22;6591;51.446;5.404;2024-03-23T08:23:57;10.20;99.90
13049;DHT22;6591;51.446;5.404;2024-03-23T08:26:23;10.30;99.90
13049;DHT22;6591;51.446;5.404;2024-03-23T08:28:49;11.00;99.90
13049;DHT22;6591;51.446;5.404;2024-03-23T08:31:15;12.40;99.90
13049;DHT22;6591;51.446;5.404;2024-03-23T08:33:44;10.50;99.90
13049;DHT22;6591;51.446;5.404;2024-03-23T08:36:10;10.50;99.90
13049;DHT22;6591;51.446;5.404;2024-03-23T08:38:46;10.90;99.90
13049;DHT22;6591;51.446;5.404;2024-03-23T08:41:12;11.40;99.90
13049;DHT22;6591;51.446;5.404;2024-03-23T08:43:44;11.10;99.90
13049;DHT22;6591;51.446;5.404;2024-03-23T08:46:14;10.90;99.90
13049;DHT22;6591;51.446;5.404;2024-03-23T08:48:45;11.00;99.90
13049;DHT22;6591;51.446;5.404;2024-03-23T08:51:13;13.20;99.90
13049;DHT22;6591;51.446;5.404;2024-03-23T08:53:41;11.40;99.90
13049;DHT22;6591;51.446;5.404;2024-03-23T08:56:09;11.40;99.90
13049;DHT22;6591;51.446;5.404;2024-03-23T08:58:37;11.90;99.90
13049;DHT22;6591;51.446;5.404;2024-03-23T09:01:08;11.70;99.90
13049;DHT22;6591;51.446;5.404;2024-03-23T09:03:37;10.80;99.90
13049;DHT22;6591;51.446;5.404;2024-03-23T09:06:13;13.20;99.90
13049;DHT22;6591;51.446;5.404;2024-03-23T09:08:41;12.90;99.90
13049;DHT22;6591;51.446;5.404;2024-03-23T09:11:11;11.80;99.90
13049;DHT22;6591;51.446;5.404;2024-03-23T09:13:39;11.50;99.90
13049;DHT22;6591;51.446;5.404;2024-03-23T09:16:07;11.20;99.90
13049;DHT22;6591;51.446;5.404;2024-03-23T09:18:35;12.40;99.90
13049;DHT22;6591;51.446;5.404;2024-03-23T09:21:03;10.60;99.90
13049;DHT22;6591;51.446;5.404;2024-03-23T09:23:36;10.30;99.90
13049;DHT22;6591;51.446;5.404;2024-03-23T09:26:05;10.80;99.90
13049;DHT22;6591;51.446;5.404;2024-03-23T09:28:34;10.00;99.90
13049;DHT22;6591;51.446;5.404;2024-03-23T09:31:04;10.00;99.90
13049;DHT22;6591;51.446;5.404;2024-03-23T09:33:31;9.60;99.90
13049;DHT22;6591;51.446;5.404;2024-03-23T09:35:57;9.50;99.90
13049;DHT22;6591;51.446;5.404;2024-03-23T09:38:24;9.30;99.90
13049;DHT22;6591;51.446;5.404;2024-03-23T09:40:53;10.60;99.90
13049;DHT22;6591;51.446;5.404;2024-03-23T09:43:19;11.40;99.90
13049;DHT22;6591;51.446;5.404;2024-03-23T09:45:46;9.10;99.90
13049;DHT22;6591;51.446;5.404;2024-03-23T09:48:12;10.30;99.90
13049;DHT22;6591;51.446;5.404;2024-03-23T09:50:47;9.10;99.90
13049;DHT22;6591;51.446;5.404;2024-03-23T09:53:14;11.20;99.90
13049;DHT22;6591;51.446;5.404;2024-03-23T09:55:45;9.10;99.90
13049;DHT22;6591;51.446;5.404;2024-03-23T09:58:16;9.00;99.90
13049;DHT22;6591;51.446;5.404;2024-03-23T10:00:44;9.10;99.90
13049;DHT22;6591;51.446;5.404;2024-03-23T10:03:13;9.20;99.90
13049;DHT22;6591;51.446;5.404;2024-03-23T10:05:40;9.30;99.90
13049;DHT22;6591;51.446;5.404;2024-03-23T10:10:44;9.20;99.90
13049;DHT22;6591;51.446;5.404;2024-03-23T10:13:11;9.10;99.90
13049;DHT22;6591;51.446;5.404;2024-03-23T10:15:58;9.70;99.90
13049;DHT22;6591;51.446;5.404;2024-03-23T10:18:26;10.10;99.90
13049;DHT22;6591;51.446;5.404;2024-03-23T10:21:08;8.70;99.90
13049;DHT22;6591;51.446;5.404;2024-03-23T10:23:41;8.60;99.90
13049;DHT22;6591;51.446;5.404;2024-03-23T10:26:22;8.50;99.90
13049;DHT22;6591;51.446;5.404;2024-03-23T10:28:58;8.40;99.90
13049;DHT22;6591;51.446;5.404;2024-03-23T10:31:37;8.40;99.90
13049;DHT22;6591;51.446;5.404;2024-03-23T10:34:05;10.10;99.90
13049;DHT22;6591;51.446;5.404;2024-03-23T10:36:32;8.60;99.90
13049;DHT22;6591;51.446;5.404;2024-03-23T10:39:00;10.70;99.90
13049;DHT22;6591;51.446;5.404;2024-03-23T10:41:32;11.80;99.90
13049;DHT22;6591;51.446;5.404;2024-03-23T10:43:58;9.90;99.90
13049;DHT22;6591;51.446;5.404;2024-03-23T10:46:31;9.30;99.90
13049;DHT22;6591;51.446;5.404;2024-03-23T10:48:58;9.40;99.90
13049;DHT22;6591;51.446;5.404;2024-03-23T10:51:25;7.80;99.90
13049;DHT22;6591;51.446;5.404;2024-03-23T10:53:53;9.70;99.90
13049;DHT22;6591;51.446;5.404;2024-03-23T10:56:22;9.90;99.90
13049;DHT22;6591;51.446;5.404;2024-03-23T10:58:49;10.30;99.90
13049;DHT22;6591;51.446;5.404;2024-03-23T11:01:17;10.30;99.90
13049;DHT22;6591;51.446;5.404;2024-03-23T11:03:47;10.60;99.90
13049;DHT22;6591;51.446;5.404;2024-03-23T11:06:36;10.90;99.90
13049;DHT22;6591;51.446;5.404;2024-03-23T11:09:14;10.80;99.90
13049;DHT22;6591;51.446;5.404;2024-03-23T11:17:30;12.20;99.90
13049;DHT22;6591;51.446;5.404;2024-03-23T11:22:45;10.00;99.90
13049;DHT22;6591;51.446;5.404;2024-03-23T11:25:17;12.40;99.90
13049;DHT22;6591;51.446;5.404;2024-03-23T11:27:47;11.00;99.90
13049;DHT22;6591;51.446;5.404;2024-03-23T11:30:19;11.00;99.90
13049;DHT22;6591;51.446;5.404;2024-03-23T11:32:53;11.00;99.90
13049;DHT22;6591;51.446;5.404;2024-03-23T11:35:34;11.10;99.90
13049;DHT22;6591;51.446;5.404;2024-03-23T11:38:13;11.20;99.90
13049;DHT22;6591;51.446;5.404;2024-03-23T11:40:48;11.20;99.90
13049;DHT22;6591;51.446;5.404;2024-03-23T11:43:16;11.30;99.90
13049;DHT22;6591;51.446;5.404;2024-03-23T11:45:48;11.30;99.90
13049;DHT22;6591;51.446;5.404;2024-03-23T11:48:21;11.50;99.90
13049;DHT22;6591;51.446;5.404;2024-03-23T11:50:50;11.40;99.90
13049;DHT22;6591;51.446;5.404;2024-03-23T11:53:20;11.40;99.90
13049;DHT22;6591;51.446;5.404;2024-03-23T11:55:59;11.10;99.90
13049;DHT22;6591;51.446;5.404;2024-03-23T11:58:27;10.80;99.90
13049;DHT22;6591;51.446;5.404;2024-03-23T12:00:58;10.50;99.90
13049;DHT22;6591;51.446;5.404;2024-03-23T12:03:29;10.20;99.90
13049;DHT22;6591;51.446;5.404;2024-03-23T12:05:57;9.30;99.90
13049;DHT22;6591;51.446;5.404;2024-03-23T12:08:32;10.70;99.90
13049;DHT22;6591;51.446;5.404;2024-03-23T12:11:13;9.60;99.90
13049;DHT22;6591;51.446;5.404;2024-03-23T12:13:44;7.90;99.90
13049;DHT22;6591;51.446;5.404;2024-03-23T12:16:18;9.40;99.90
13049;DHT22;6591;51.446;5.404;2024-03-23T12:18:49;9.20;99.90
13049;DHT22;6591;51.446;5.404;2024-03-23T12:21:17;11.70;99.90
13049;DHT22;6591;51.446;5.404;2024-03-23T12:23:44;9.20;99.90
13049;DHT22;6591;51.446;5.404;2024-03-23T12:26:12;9.30;99.90
13049;DHT22;6591;51.446;5.404;2024-03-23T12:28:39;9.60;99.90
13049;DHT22;6591;51.446;5.404;2024-03-23T12:31:05;10.40;99.90
13049;DHT22;6591;51.446;5.404;2024-03-23T12:33:32;11.90;99.90
13049;DHT22;6591;51.446;5.404;2024-03-23T12:35:58;11.50;99.90
13049;DHT22;6591;51.446;5.404;2024-03-23T12:38:24;9.70;99.90
13049;DHT22;6591;51.446;5.404;2024-03-23T12:40:51;9.80;99.90
13049;DHT22;6591;51.446;5.404;2024-03-23T12:43:17;10.90;99.90
13049;DHT22;6591;51.446;5.404;2024-03-23T12:45:50;12.00;99.90
13049;DHT22;6591;51.446;5.404;2024-03-23T12:48:16;10.10;99.90
13049;DHT22;6591;51.446;5.404;2024-03-23T12:50:42;10.90;99.90
13049;DHT22;6591;51.446;5.404;2024-03-23T12:53:09;12.10;99.90
13049;DHT22;6591;51.446;5.404;2024-03-23T12:55:35;11.60;99.90
13049;DHT22;6591;51.446;5.404;2024-03-23T12:58:01;12.30;99.90
13049;DHT22;6591;51.446;5.404;2024-03-23T13:00:29;11.50;99.90
13049;DHT22;6591;51.446;5.404;2024-03-23T13:02:55;10.40;99.90
13049;DHT22;6591;51.446;5.404;2024-03-23T13:05:21;10.50;99.90
13049;DHT22;6591;51.446;5.404;2024-03-23T13:07:48;10.80;99.90
13049;DHT22;6591;51.446;5.404;2024-03-23T13:10:14;12.20;99.90
13049;DHT22;6591;51.446;5.404;2024-03-23T13:12:42;12.30;99.90
13049;DHT22;6591;51.446;5.404;2024-03-23T13:15:09;12.60;99.90
13049;DHT22;6591;51.446;5.404;2024-03-23T13:17:35;13.70;99.90
13049;DHT22;6591;51.446;5.404;2024-03-23T13:20:01;12.80;99.90
13049;DHT22;6591;51.446;5.404;2024-03-23T13:22:29;11.70;99.90
13049;DHT22;6591;51.446;5.404;2024-03-23T13:24:56;14.20;99.90
13049;DHT22;6591;51.446;5.404;2024-03-23T13:27:22;12.90;99.90
13049;DHT22;6591;51.446;5.404;2024-03-23T13:29:48;11.90;99.90
13049;DHT22;6591;51.446;5.404;2024-03-23T13:32:14;11.80;99.90
13049;DHT22;6591;51.446;5.404;2024-03-23T13:34:40;10.60;99.90
13049;DHT22;6591;51.446;5.404;2024-03-23T13:37:08;12.30;99.90
13049;DHT22;6591;51.446;5.404;2024-03-23T13:39:35;11.30;99.90
13049;DHT22;6591;51.446;5.404;2024-03-23T13:42:01;11.10;99.90
13049;DHT22;6591;51.446;5.404;2024-03-23T13:44:29;13.00;99.90
13049;DHT22;6591;51.446;5.404;2024-03-23T13:46:55;12.30;99.90
13049;DHT22;6591;51.446;5.404;2024-03-23T13:49:28;10.70;99.90
13049;DHT22;6591;51.446;5.404;2024-03-23T13:51:56;10.60;99.90
13049;DHT22;6591;51.446;5.404;2024-03-23T13:54:24;10.40;99.90
13049;DHT22;6591;51.446;5.404;2024-03-23T13:56:52;10.30;99.90
13049;DHT22;6591;51.446;5.404;2024-03-23T13:59:20;10.10;99.90
13049;DHT22;6591;51.446;5.404;2024-03-23T14:01:49;12.10;99.90
13049;DHT22;6591;51.446;5.404;2024-03-23T14:04:15;12.70;99.90
13049;DHT22;6591;51.446;5.404;2024-03-23T14:06:49;10.20;99.90
13049;DHT22;6591;51.446;5.404;2024-03-23T14:09:15;10.30;99.90
13049;DHT22;6591;51.446;5.404;2024-03-23T14:11:47;10.40;99.90
13049;DHT22;6591;51.446;5.404;2024-03-23T14:14:14;12.30;99.90
13049;DHT22;6591;51.446;5.404;2024-03-23T14:16:43;10.70;99.90
13049;DHT22;6591;51.446;5.404;2024-03-23T14:19:10;13.20;99.90
13049;DHT22;6591;51.446;5.404;2024-03-23T14:21:36;13.60;99.90
13049;DHT22;6591;51.446;5.404;2024-03-23T14:24:02;13.00;99.90
13049;DHT22;6591;51.446;5.404;2024-03-23T14:26:28;11.60;99.90
13049;DHT22;6591;51.446;5.404;2024-03-23T14:28:55;13.90;99.90
13049;DHT22;6591;51.446;5.404;2024-03-23T14:31:21;11.90;99.90
13049;DHT22;6591;51.446;5.404;2024-03-23T14:33:47;13.50;99.90
13049;DHT22;6591;51.446;5.404;2024-03-23T14:36:14;14.80;99.90
13049;DHT22;6591;51.446;5.404;2024-03-23T14:38:40;12.40;99.90
13049;DHT22;6591;51.446;5.404;2024-03-23T14:41:09;12.50;99.90
13049;DHT22;6591;51.446;5.404;2024-03-23T14:43:35;12.50;99.90
13049;DHT22;6591;51.446;5.404;2024-03-23T14:46:12;12.50;99.90
13049;DHT22;6591;51.446;5.404;2024-03-23T14:48:40;15.00;99.90
13049;DHT22;6591;51.446;5.404;2024-03-23T14:51:11;12.60;99.90
13049;DHT22;6591;51.446;5.404;2024-03-23T14:53:45;13.70;99.90
13049;DHT22;6591;51.446;5.404;2024-03-23T14:56:11;13.60;99.90
13049;DHT22;6591;51.446;5.404;2024-03-23T14:58:41;15.00;99.90
13049;DHT22;6591;51.446;5.404;2024-03-23T15:01:08;13.00;99.90
13049;DHT22;6591;51.446;5.404;2024-03-23T15:03:38;13.40;99.90
13049;DHT22;6591;51.446;5.404;2024-03-23T15:06:06;13.50;99.90
13049;DHT22;6591;51.446;5.404;2024-03-23T15:08:34;13.70;99.90
13049;DHT22;6591;51.446;5.404;2024-03-23T15:11:02;13.80;99.90
13049;DHT22;6591;51.446;5.404;2024-03-23T15:13:34;13.90;99.90
13049;DHT22;6591;51.446;5.404;2024-03-23T15:16:02;14.00;99.90
13049;DHT22;6591;51.446;5.404;2024-03-23T15:18:30;14.10;99.90
13049;DHT22;6591;51.446;5.404;2024-03-23T15:20:58;14.20;99.90
13049;DHT22;6591;51.446;5.404;2024-03-23T15:23:29;14.20;99.90
13049;DHT22;6591;51.446;5.404;2024-03-23T15:25:59;14.20;99.90
13049;DHT22;6591;51.446;5.404;2024-03-23T15:28:28;14.10;99.90
13049;DHT22;6591;51.446;5.404;2024-03-23T15:31:05;14.00;99.90
13049;DHT22;6591;51.446;5.404;2024-03-23T15:33:32;14.00;99.90
13049;DHT22;6591;51.446;5.404;2024-03-23T15:36:05;14.80;99.90
13049;DHT22;6591;51.446;5.404;2024-03-23T15:38:32;12.70;99.80
13049;DHT22;6591;51.446;5.404;2024-03-23T15:40:59;12.70;99.90
13049;DHT22;6591;51.446;5.404;2024-03-23T15:43:25;11.90;99.90
13049;DHT22;6591;51.446;5.404;2024-03-23T15:45:57;12.40;99.90
13049;DHT22;6591;51.446;5.404;2024-03-23T15:48:30;11.00;99.90
13049;DHT22;6591;51.446;5.404;2024-03-23T15:51:02;10.50;99.90
13049;DHT22;6591;51.446;5.404;2024-03-23T15:53:30;10.00;99.90
13049;DHT22;6591;51.446;5.404;2024-03-23T15:58:26;8.20;99.90
13049;DHT22;6591;51.446;5.404;2024-03-23T16:01:04;9.80;99.90
13049;DHT22;6591;51.446;5.404;2024-03-23T16:03:32;10.40;99.90
13049;DHT22;6591;51.446;5.404;2024-03-23T16:06:00;8.60;99.90
13049;DHT22;6591;51.446;5.404;2024-03-23T16:08:31;8.40;99.90
13049;DHT22;6591;51.446;5.404;2024-03-23T16:11:01;8.20;99.90
13049;DHT22;6591;51.446;5.404;2024-03-23T16:13:33;8.10;99.90
13049;DHT22;6591;51.446;5.404;2024-03-23T16:16:01;10.60;99.90
13049;DHT22;6591;51.446;5.404;2024-03-23T16:18:37;7.80;99.90
13049;DHT22;6591;51.446;5.404;2024-03-23T16:21:11;7.90;99.90
13049;DHT22;6591;51.446;5.404;2024-03-23T16:23:37;7.70;99.90
13049;DHT22;6591;51.446;5.404;2024-03-23T16:26:04;7.60;99.90
13049;DHT22;6591;51.446;5.404;2024-03-23T16:28:35;7.50;99.90
13049;DHT22;6591;51.446;5.404;2024-03-23T16:31:07;7.90;99.90
13049;DHT22;6591;51.446;5.404;2024-03-23T16:33:35;7.40;99.90
13049;DHT22;6591;51.446;5.404;2024-03-23T16:36:02;7.40;99.90
13049;DHT22;6591;51.446;5.404;2024-03-23T16:38:39;7.30;99.90
13049;DHT22;6591;51.446;5.404;2024-03-23T16:41:10;7.30;99.90
13049;DHT22;6591;51.446;5.404;2024-03-23T16:43:46;7.30;99.90
13049;DHT22;6591;51.446;5.404;2024-03-23T16:46:14;7.30;99.90
13049;DHT22;6591;51.446;5.404;2024-03-23T16:48:44;7.20;99.90
13049;DHT22;6591;51.446;5.404;2024-03-23T16:51:11;7.20;99.90
13049;DHT22;6591;51.446;5.404;2024-03-23T16:53:38;9.60;99.90
13049;DHT22;6591;51.446;5.404;2024-03-23T16:56:11;7.90;99.90
13049;DHT22;6591;51.446;5.404;2024-03-23T16:58:39;7.20;99.90
13049;DHT22;6591;51.446;5.404;2024-03-23T17:01:13;7.20;99.90
13049;DHT22;6591;51.446;5.404;2024-03-23T17:03:52;6.40;99.90
13049;DHT22;6591;51.446;5.404;2024-03-23T17:06:21;9.90;99.90
13049;DHT22;6591;51.446;5.404;2024-03-23T17:08:49;7.10;99.90